KSUS/SUS METAR and TAF weather

Enter ICAO airport designator
Station Type Date Time Source
KSUS METAR 2020/06/05 08:54 UTC NOAA

KSUS 050854Z AUTO 00000KT 5SM BR CLR 18/17 A2985 RMK AO2 SLP101 T01830172 55007


Station Type Date Time Source
KSUS Decoded METAR 2020/06/05 08:54 UTC NOAA

SPIRIT OF ST. LOUIS AIRPORT , MO, United States (KSUS) 38-39N 090-39W 141M
Jun 05, 2020 - 04:54 AM EDT / 2020.06.05 0854 UTC
Wind: Calm:0
Visibility: 5 mile(s):0
Sky conditions: clear
Weather: mist
Temperature: 64.9 F (18.3 C)
Dew Point: 63.0 F (17.2 C)
Relative Humidity: 93%
Pressure (altimeter): 29.85 in. Hg (1010 hPa)
Pressure tendency: 0.02 inches (0.7 hPa) lower than three hours ago
ob: KSUS 050854Z AUTO 00000KT 5SM BR CLR 18/17 A2985 RMK AO2 SLP101 T01830172 55007
cycle: 9

Station Type Date Time Source
KSUS TAF 2020/06/05 06:34 UTC NOAA

TAF KSUS 050532Z 0506/0606 00000KT P6SM SKC
FM051600 19004KT P6SM SCT040
FM052100 22005KT P6SM VCTS SCT050CB
FM060100 VRB03KT P6SM SCT120

Example: see airport list